sensor_id;sensor_type;location;lat;lon;timestamp;P1;P2;P0
38451;PMS5003;24231;52.514;13.438;2023-04-06T00:02:02;12;12;
38451;PMS5003;24231;52.514;13.438;2023-04-06T00:04:30;22;18;
38451;PMS5003;24231;52.514;13.438;2023-04-06T00:06:57;14;12;
38451;PMS5003;24231;52.514;13.438;2023-04-06T00:09:25;18;16;
38451;PMS5003;24231;52.514;13.438;2023-04-06T00:11:52;14;14;
38451;PMS5003;24231;52.514;13.438;2023-04-06T00:14:19;17;14;
38451;PMS5003;24231;52.514;13.438;2023-04-06T00:16:46;19;14;
38451;PMS5003;24231;52.514;13.438;2023-04-06T00:19:14;14;13;
38451;PMS5003;24231;52.514;13.438;2023-04-06T00:21:41;13;13;
38451;PMS5003;24231;52.514;13.438;2023-04-06T00:24:08;16;16;
38451;PMS5003;24231;52.514;13.438;2023-04-06T00:26:35;14;11;
38451;PMS5003;24231;52.514;13.438;2023-04-06T00:29:02;17;16;
38451;PMS5003;24231;52.514;13.438;2023-04-06T00:31:30;12;12;
38451;PMS5003;24231;52.514;13.438;2023-04-06T00:33:57;13;12;
38451;PMS5003;24231;52.514;13.438;2023-04-06T00:36:25;17;16;
38451;PMS5003;24231;52.514;13.438;2023-04-06T00:38:52;13;11;
38451;PMS5003;24231;52.514;13.438;2023-04-06T00:41:19;16;16;
38451;PMS5003;24231;52.514;13.438;2023-04-06T00:43:46;15;12;
38451;PMS5003;24231;52.514;13.438;2023-04-06T00:46:14;13;12;
38451;PMS5003;24231;52.514;13.438;2023-04-06T00:48:41;19;15;
38451;PMS5003;24231;52.514;13.438;2023-04-06T00:51:08;15;13;
38451;PMS5003;24231;52.514;13.438;2023-04-06T00:53:36;15;15;
38451;PMS5003;24231;52.514;13.438;2023-04-06T00:56:04;13;11;
38451;PMS5003;24231;52.514;13.438;2023-04-06T00:58:32;16;10;
38451;PMS5003;24231;52.514;13.438;2023-04-06T01:00:59;12;12;
38451;PMS5003;24231;52.514;13.438;2023-04-06T01:03:26;19;16;
38451;PMS5003;24231;52.514;13.438;2023-04-06T01:05:53;15;13;
38451;PMS5003;24231;52.514;13.438;2023-04-06T01:08:21;14;11;
38451;PMS5003;24231;52.514;13.438;2023-04-06T01:10:48;17;12;
38451;PMS5003;24231;52.514;13.438;2023-04-06T01:13:15;15;15;
38451;PMS5003;24231;52.514;13.438;2023-04-06T01:15:42;17;13;
38451;PMS5003;24231;52.514;13.438;2023-04-06T01:18:10;18;16;
38451;PMS5003;24231;52.514;13.438;2023-04-06T01:20:37;12;10;
38451;PMS5003;24231;52.514;13.438;2023-04-06T01:23:04;11;11;
38451;PMS5003;24231;52.514;13.438;2023-04-06T01:25:32;18;17;
38451;PMS5003;24231;52.514;13.438;2023-04-06T01:28:00;12;12;
38451;PMS5003;24231;52.514;13.438;2023-04-06T01:30:27;13;10;
38451;PMS5003;24231;52.514;13.438;2023-04-06T01:32:54;13;12;
38451;PMS5003;24231;52.514;13.438;2023-04-06T01:35:21;12;10;
38451;PMS5003;24231;52.514;13.438;2023-04-06T01:37:49;18;16;
38451;PMS5003;24231;52.514;13.438;2023-04-06T01:40:17;19;16;
38451;PMS5003;24231;52.514;13.438;2023-04-06T01:42:44;15;12;
38451;PMS5003;24231;52.514;13.438;2023-04-06T01:45:12;14;11;
38451;PMS5003;24231;52.514;13.438;2023-04-06T01:47:39;15;11;
38451;PMS5003;24231;52.514;13.438;2023-04-06T01:50:07;14;11;
38451;PMS5003;24231;52.514;13.438;2023-04-06T01:52:34;16;12;
38451;PMS5003;24231;52.514;13.438;2023-04-06T01:55:02;11;10;
38451;PMS5003;24231;52.514;13.438;2023-04-06T01:57:29;14;10;
38451;PMS5003;24231;52.514;13.438;2023-04-06T01:59:56;12;12;
38451;PMS5003;24231;52.514;13.438;2023-04-06T02:02:23;16;13;
38451;PMS5003;24231;52.514;13.438;2023-04-06T02:04:51;15;11;
38451;PMS5003;24231;52.514;13.438;2023-04-06T02:07:18;11;10;
38451;PMS5003;24231;52.514;13.438;2023-04-06T02:09:45;14;12;
38451;PMS5003;24231;52.514;13.438;2023-04-06T02:12:13;9;8;
38451;PMS5003;24231;52.514;13.438;2023-04-06T02:14:41;16;11;
38451;PMS5003;24231;52.514;13.438;2023-04-06T02:17:09;15;10;
38451;PMS5003;24231;52.514;13.438;2023-04-06T02:19:51;19;17;
38451;PMS5003;24231;52.514;13.438;2023-04-06T02:22:19;10;10;
38451;PMS5003;24231;52.514;13.438;2023-04-06T02:24:46;11;11;
38451;PMS5003;24231;52.514;13.438;2023-04-06T02:27:14;19;18;
38451;PMS5003;24231;52.514;13.438;2023-04-06T02:29:41;11;11;
38451;PMS5003;24231;52.514;13.438;2023-04-06T02:32:09;14;12;
38451;PMS5003;24231;52.514;13.438;2023-04-06T02:34:36;12;11;
38451;PMS5003;24231;52.514;13.438;2023-04-06T02:37:04;15;15;
38451;PMS5003;24231;52.514;13.438;2023-04-06T02:39:31;20;18;
38451;PMS5003;24231;52.514;13.438;2023-04-06T02:41:58;21;16;
38451;PMS5003;24231;52.514;13.438;2023-04-06T02:44:30;12;12;
38451;PMS5003;24231;52.514;13.438;2023-04-06T02:46:58;11;11;
38451;PMS5003;24231;52.514;13.438;2023-04-06T02:49:25;16;14;
38451;PMS5003;24231;52.514;13.438;2023-04-06T02:51:53;18;15;
38451;PMS5003;24231;52.514;13.438;2023-04-06T02:55:01;18;16;
38451;PMS5003;24231;52.514;13.438;2023-04-06T02:57:28;20;17;
38451;PMS5003;24231;52.514;13.438;2023-04-06T02:59:55;19;19;
38451;PMS5003;24231;52.514;13.438;2023-04-06T03:02:23;18;15;
38451;PMS5003;24231;52.514;13.438;2023-04-06T03:04:50;27;19;
38451;PMS5003;24231;52.514;13.438;2023-04-06T03:07:18;21;20;
38451;PMS5003;24231;52.514;13.438;2023-04-06T03:09:45;27;23;
38451;PMS5003;24231;52.514;13.438;2023-04-06T03:12:18;26;21;
38451;PMS5003;24231;52.514;13.438;2023-04-06T03:14:45;23;21;
38451;PMS5003;24231;52.514;13.438;2023-04-06T03:17:13;25;25;
38451;PMS5003;24231;52.514;13.438;2023-04-06T03:19:41;17;16;
38451;PMS5003;24231;52.514;13.438;2023-04-06T03:22:08;25;20;
38451;PMS5003;24231;52.514;13.438;2023-04-06T03:24:35;26;21;
38451;PMS5003;24231;52.514;13.438;2023-04-06T03:27:03;26;22;
38451;PMS5003;24231;52.514;13.438;2023-04-06T03:29:30;22;20;
38451;PMS5003;24231;52.514;13.438;2023-04-06T03:31:57;27;21;
38451;PMS5003;24231;52.514;13.438;2023-04-06T03:34:24;22;20;
38451;PMS5003;24231;52.514;13.438;2023-04-06T03:36:52;20;19;
38451;PMS5003;24231;52.514;13.438;2023-04-06T03:39:22;20;19;
38451;PMS5003;24231;52.514;13.438;2023-04-06T03:41:49;24;21;
38451;PMS5003;24231;52.514;13.438;2023-04-06T03:44:17;21;19;
38451;PMS5003;24231;52.514;13.438;2023-04-06T03:46:44;25;22;
38451;PMS5003;24231;52.514;13.438;2023-04-06T03:49:11;24;19;
38451;PMS5003;24231;52.514;13.438;2023-04-06T03:51:38;23;20;
38451;PMS5003;24231;52.514;13.438;2023-04-06T03:54:06;30;26;
38451;PMS5003;24231;52.514;13.438;2023-04-06T03:56:33;25;24;
38451;PMS5003;24231;52.514;13.438;2023-04-06T03:59:00;28;27;
38451;PMS5003;24231;52.514;13.438;2023-04-06T04:01:28;21;16;
38451;PMS5003;24231;52.514;13.438;2023-04-06T04:03:55;25;25;
38451;PMS5003;24231;52.514;13.438;2023-04-06T04:06:22;27;21;
38451;PMS5003;24231;52.514;13.438;2023-04-06T04:08:50;19;19;
38451;PMS5003;24231;52.514;13.438;2023-04-06T04:11:17;25;19;
38451;PMS5003;24231;52.514;13.438;2023-04-06T04:13:44;25;21;
38451;PMS5003;24231;52.514;13.438;2023-04-06T04:16:12;23;22;
38451;PMS5003;24231;52.514;13.438;2023-04-06T04:18:39;29;26;
38451;PMS5003;24231;52.514;13.438;2023-04-06T04:21:21;25;22;
38451;PMS5003;24231;52.514;13.438;2023-04-06T04:23:51;27;23;
38451;PMS5003;24231;52.514;13.438;2023-04-06T04:26:29;22;21;
38451;PMS5003;24231;52.514;13.438;2023-04-06T04:28:56;28;23;
38451;PMS5003;24231;52.514;13.438;2023-04-06T04:31:24;25;23;
38451;PMS5003;24231;52.514;13.438;2023-04-06T04:33:52;26;23;
38451;PMS5003;24231;52.514;13.438;2023-04-06T04:36:19;23;21;
38451;PMS5003;24231;52.514;13.438;2023-04-06T04:38:46;23;23;
38451;PMS5003;24231;52.514;13.438;2023-04-06T04:41:14;29;26;
38451;PMS5003;24231;52.514;13.438;2023-04-06T04:43:42;29;29;
38451;PMS5003;24231;52.514;13.438;2023-04-06T04:46:09;22;18;
38451;PMS5003;24231;52.514;13.438;2023-04-06T04:48:37;27;23;
38451;PMS5003;24231;52.514;13.438;2023-04-06T04:51:04;24;22;
38451;PMS5003;24231;52.514;13.438;2023-04-06T04:53:31;31;27;
38451;PMS5003;24231;52.514;13.438;2023-04-06T04:55:58;27;26;
38451;PMS5003;24231;52.514;13.438;2023-04-06T04:58:26;30;24;
38451;PMS5003;24231;52.514;13.438;2023-04-06T05:00:54;23;23;
38451;PMS5003;24231;52.514;13.438;2023-04-06T05:03:22;18;17;
38451;PMS5003;24231;52.514;13.438;2023-04-06T05:05:51;32;25;
38451;PMS5003;24231;52.514;13.438;2023-04-06T05:08:19;18;17;
38451;PMS5003;24231;52.514;13.438;2023-04-06T05:10:47;20;18;
38451;PMS5003;24231;52.514;13.438;2023-04-06T05:13:14;26;25;
38451;PMS5003;24231;52.514;13.438;2023-04-06T05:15:42;22;20;
38451;PMS5003;24231;52.514;13.438;2023-04-06T05:18:09;22;20;
38451;PMS5003;24231;52.514;13.438;2023-04-06T05:20:37;19;17;
38451;PMS5003;24231;52.514;13.438;2023-04-06T05:23:05;20;17;
38451;PMS5003;24231;52.514;13.438;2023-04-06T05:25:32;18;16;
38451;PMS5003;24231;52.514;13.438;2023-04-06T05:28:00;28;23;
38451;PMS5003;24231;52.514;13.438;2023-04-06T05:30:27;31;23;
38451;PMS5003;24231;52.514;13.438;2023-04-06T05:32:55;15;15;
38451;PMS5003;24231;52.514;13.438;2023-04-06T05:35:22;17;14;
38451;PMS5003;24231;52.514;13.438;2023-04-06T05:37:49;17;17;
38451;PMS5003;24231;52.514;13.438;2023-04-06T05:40:17;17;17;
38451;PMS5003;24231;52.514;13.438;2023-04-06T05:42:44;17;13;
38451;PMS5003;24231;52.514;13.438;2023-04-06T05:45:22;17;17;
38451;PMS5003;24231;52.514;13.438;2023-04-06T05:47:49;17;15;
38451;PMS5003;24231;52.514;13.438;2023-04-06T05:50:16;19;16;
38451;PMS5003;24231;52.514;13.438;2023-04-06T05:52:43;18;17;
38451;PMS5003;24231;52.514;13.438;2023-04-06T05:55:10;19;16;
38451;PMS5003;24231;52.514;13.438;2023-04-06T05:57:39;20;18;
38451;PMS5003;24231;52.514;13.438;2023-04-06T06:00:07;23;17;
38451;PMS5003;24231;52.514;13.438;2023-04-06T06:02:36;18;17;
38451;PMS5003;24231;52.514;13.438;2023-04-06T06:05:03;16;16;
38451;PMS5003;24231;52.514;13.438;2023-04-06T06:07:31;15;13;
38451;PMS5003;24231;52.514;13.438;2023-04-06T06:09:58;18;14;
38451;PMS5003;24231;52.514;13.438;2023-04-06T06:12:26;16;14;
38451;PMS5003;24231;52.514;13.438;2023-04-06T06:12:46;16;14;
38451;PMS5003;24231;52.514;13.438;2023-04-06T06:15:14;19;17;
38451;PMS5003;24231;52.514;13.438;2023-04-06T06:17:42;16;16;
38451;PMS5003;24231;52.514;13.438;2023-04-06T06:20:10;19;15;
38451;PMS5003;24231;52.514;13.438;2023-04-06T06:22:38;18;17;
38451;PMS5003;24231;52.514;13.438;2023-04-06T06:25:05;20;18;
38451;PMS5003;24231;52.514;13.438;2023-04-06T06:27:32;16;16;
38451;PMS5003;24231;52.514;13.438;2023-04-06T06:30:00;25;21;
38451;PMS5003;24231;52.514;13.438;2023-04-06T06:32:27;21;16;
38451;PMS5003;24231;52.514;13.438;2023-04-06T06:34:55;23;20;
38451;PMS5003;24231;52.514;13.438;2023-04-06T06:37:23;17;15;
38451;PMS5003;24231;52.514;13.438;2023-04-06T06:39:50;15;14;
38451;PMS5003;24231;52.514;13.438;2023-04-06T06:42:17;17;17;
38451;PMS5003;24231;52.514;13.438;2023-04-06T06:44:45;19;15;
38451;PMS5003;24231;52.514;13.438;2023-04-06T06:47:13;14;13;
38451;PMS5003;24231;52.514;13.438;2023-04-06T06:49:40;18;16;
38451;PMS5003;24231;52.514;13.438;2023-04-06T06:52:08;21;20;
38451;PMS5003;24231;52.514;13.438;2023-04-06T06:54:36;14;14;
38451;PMS5003;24231;52.514;13.438;2023-04-06T06:57:03;15;15;
38451;PMS5003;24231;52.514;13.438;2023-04-06T06:59:31;13;12;
38451;PMS5003;24231;52.514;13.438;2023-04-06T07:01:58;17;16;
38451;PMS5003;24231;52.514;13.438;2023-04-06T07:04:26;15;14;
38451;PMS5003;24231;52.514;13.438;2023-04-06T07:06:52;15;15;
38451;PMS5003;24231;52.514;13.438;2023-04-06T07:09:19;15;15;
38451;PMS5003;24231;52.514;13.438;2023-04-06T07:11:46;15;13;
38451;PMS5003;24231;52.514;13.438;2023-04-06T07:14:14;13;10;
38451;PMS5003;24231;52.514;13.438;2023-04-06T07:16:42;16;14;
38451;PMS5003;24231;52.514;13.438;2023-04-06T07:19:09;16;15;
38451;PMS5003;24231;52.514;13.438;2023-04-06T07:21:36;14;14;
38451;PMS5003;24231;52.514;13.438;2023-04-06T07:24:03;17;15;
38451;PMS5003;24231;52.514;13.438;2023-04-06T07:26:31;23;16;
38451;PMS5003;24231;52.514;13.438;2023-04-06T07:28:58;15;14;
38451;PMS5003;24231;52.514;13.438;2023-04-06T07:31:25;16;11;
38451;PMS5003;24231;52.514;13.438;2023-04-06T07:33:53;13;12;
38451;PMS5003;24231;52.514;13.438;2023-04-06T07:36:20;12;11;
38451;PMS5003;24231;52.514;13.438;2023-04-06T07:38:47;16;13;
38451;PMS5003;24231;52.514;13.438;2023-04-06T07:41:14;11;10;
38451;PMS5003;24231;52.514;13.438;2023-04-06T07:43:42;21;17;
38451;PMS5003;24231;52.514;13.438;2023-04-06T07:46:10;10;10;
38451;PMS5003;24231;52.514;13.438;2023-04-06T07:48:37;13;13;
38451;PMS5003;24231;52.514;13.438;2023-04-06T07:51:04;14;13;
38451;PMS5003;24231;52.514;13.438;2023-04-06T07:53:32;12;12;
38451;PMS5003;24231;52.514;13.438;2023-04-06T07:55:59;14;14;
38451;PMS5003;24231;52.514;13.438;2023-04-06T07:58:27;12;12;
38451;PMS5003;24231;52.514;13.438;2023-04-06T08:00:54;12;12;
38451;PMS5003;24231;52.514;13.438;2023-04-06T08:03:22;11;9;
38451;PMS5003;24231;52.514;13.438;2023-04-06T08:05:49;8;8;
38451;PMS5003;24231;52.514;13.438;2023-04-06T08:08:16;17;12;
38451;PMS5003;24231;52.514;13.438;2023-04-06T08:10:44;14;12;
38451;PMS5003;24231;52.514;13.438;2023-04-06T08:13:11;11;11;
38451;PMS5003;24231;52.514;13.438;2023-04-06T08:15:39;7;7;
38451;PMS5003;24231;52.514;13.438;2023-04-06T08:18:07;6;6;
38451;PMS5003;24231;52.514;13.438;2023-04-06T08:20:35;9;8;
38451;PMS5003;24231;52.514;13.438;2023-04-06T08:23:03;7;7;
38451;PMS5003;24231;52.514;13.438;2023-04-06T08:25:30;8;8;
38451;PMS5003;24231;52.514;13.438;2023-04-06T08:27:56;8;7;
38451;PMS5003;24231;52.514;13.438;2023-04-06T08:30:24;10;6;
38451;PMS5003;24231;52.514;13.438;2023-04-06T08:32:51;9;7;
38451;PMS5003;24231;52.514;13.438;2023-04-06T08:35:18;10;10;
38451;PMS5003;24231;52.514;13.438;2023-04-06T08:37:45;8;6;
38451;PMS5003;24231;52.514;13.438;2023-04-06T08:40:13;6;6;
38451;PMS5003;24231;52.514;13.438;2023-04-06T08:42:40;9;9;
38451;PMS5003;24231;52.514;13.438;2023-04-06T08:45:16;6;5;
38451;PMS5003;24231;52.514;13.438;2023-04-06T08:47:44;10;9;
38451;PMS5003;24231;52.514;13.438;2023-04-06T08:50:13;6;4;
38451;PMS5003;24231;52.514;13.438;2023-04-06T08:52:43;5;5;
38451;PMS5003;24231;52.514;13.438;2023-04-06T08:55:12;7;7;
38451;PMS5003;24231;52.514;13.438;2023-04-06T08:57:39;11;8;
38451;PMS5003;24231;52.514;13.438;2023-04-06T09:00:08;6;6;
38451;PMS5003;24231;52.514;13.438;2023-04-06T09:02:38;5;5;
38451;PMS5003;24231;52.514;13.438;2023-04-06T09:05:08;5;4;
38451;PMS5003;24231;52.514;13.438;2023-04-06T09:07:36;5;5;
38451;PMS5003;24231;52.514;13.438;2023-04-06T09:10:04;9;7;
38451;PMS5003;24231;52.514;13.438;2023-04-06T09:12:34;7;5;
38451;PMS5003;24231;52.514;13.438;2023-04-06T09:15:03;5;4;
38451;PMS5003;24231;52.514;13.438;2023-04-06T09:17:31;5;5;
38451;PMS5003;24231;52.514;13.438;2023-04-06T09:19:58;3;3;
38451;PMS5003;24231;52.514;13.438;2023-04-06T09:22:36;3;3;
38451;PMS5003;24231;52.514;13.438;2023-04-06T09:25:04;4;4;
38451;PMS5003;24231;52.514;13.438;2023-04-06T09:27:33;4;4;
38451;PMS5003;24231;52.514;13.438;2023-04-06T09:30:03;4;4;
38451;PMS5003;24231;52.514;13.438;2023-04-06T09:32:31;22;22;
38451;PMS5003;24231;52.514;13.438;2023-04-06T09:35:07;25;17;
38451;PMS5003;24231;52.514;13.438;2023-04-06T09:37:35;6;6;
38451;PMS5003;24231;52.514;13.438;2023-04-06T09:40:04;6;4;
38451;PMS5003;24231;52.514;13.438;2023-04-06T09:42:33;8;7;
38451;PMS5003;24231;52.514;13.438;2023-04-06T09:45:01;3;3;
38451;PMS5003;24231;52.514;13.438;2023-04-06T09:47:29;5;5;
38451;PMS5003;24231;52.514;13.438;2023-04-06T09:49:58;3;3;
38451;PMS5003;24231;52.514;13.438;2023-04-06T09:52:27;6;4;
38451;PMS5003;24231;52.514;13.438;2023-04-06T09:54:59;4;4;
38451;PMS5003;24231;52.514;13.438;2023-04-06T09:57:31;4;4;
38451;PMS5003;24231;52.514;13.438;2023-04-06T10:00:05;4;4;
38451;PMS5003;24231;52.514;13.438;2023-04-06T10:02:35;3;3;
38451;PMS5003;24231;52.514;13.438;2023-04-06T10:05:15;5;4;
38451;PMS5003;24231;52.514;13.438;2023-04-06T10:07:46;3;3;
38451;PMS5003;24231;52.514;13.438;2023-04-06T10:10:16;5;3;
38451;PMS5003;24231;52.514;13.438;2023-04-06T10:12:44;3;3;
38451;PMS5003;24231;52.514;13.438;2023-04-06T10:15:13;7;4;
38451;PMS5003;24231;52.514;13.438;2023-04-06T10:17:40;5;3;
38451;PMS5003;24231;52.514;13.438;2023-04-06T10:20:09;4;4;
38451;PMS5003;24231;52.514;13.438;2023-04-06T10:22:43;2;2;
38451;PMS5003;24231;52.514;13.438;2023-04-06T10:25:16;3;3;
38451;PMS5003;24231;52.514;13.438;2023-04-06T10:27:43;3;3;
38451;PMS5003;24231;52.514;13.438;2023-04-06T10:30:10;3;3;
38451;PMS5003;24231;52.514;13.438;2023-04-06T10:32:42;2;2;
38451;PMS5003;24231;52.514;13.438;2023-04-06T10:35:19;3;3;
38451;PMS5003;24231;52.514;13.438;2023-04-06T10:37:47;4;4;
38451;PMS5003;24231;52.514;13.438;2023-04-06T10:40:18;4;4;
38451;PMS5003;24231;52.514;13.438;2023-04-06T10:42:47;4;3;
38451;PMS5003;24231;52.514;13.438;2023-04-06T10:45:19;4;4;
38451;PMS5003;24231;52.514;13.438;2023-04-06T10:47:48;3;3;
38451;PMS5003;24231;52.514;13.438;2023-04-06T10:50:15;4;4;
38451;PMS5003;24231;52.514;13.438;2023-04-06T10:52:44;4;3;
38451;PMS5003;24231;52.514;13.438;2023-04-06T10:55:12;1;1;
38451;PMS5003;24231;52.514;13.438;2023-04-06T10:57:41;3;3;
38451;PMS5003;24231;52.514;13.438;2023-04-06T11:00:08;37;31;
38451;PMS5003;24231;52.514;13.438;2023-04-06T11:02:38;49;44;
38451;PMS5003;24231;52.514;13.438;2023-04-06T11:05:06;8;6;
38451;PMS5003;24231;52.514;13.438;2023-04-06T11:07:34;3;3;
38451;PMS5003;24231;52.514;13.438;2023-04-06T11:10:01;6;4;
38451;PMS5003;24231;52.514;13.438;2023-04-06T11:12:29;2;2;
38451;PMS5003;24231;52.514;13.438;2023-04-06T11:14:56;6;5;
38451;PMS5003;24231;52.514;13.438;2023-04-06T11:17:25;3;3;
38451;PMS5003;24231;52.514;13.438;2023-04-06T11:19:53;5;5;
38451;PMS5003;24231;52.514;13.438;2023-04-06T11:22:20;3;3;
38451;PMS5003;24231;52.514;13.438;2023-04-06T11:24:48;5;5;
38451;PMS5003;24231;52.514;13.438;2023-04-06T11:27:15;4;4;
38451;PMS5003;24231;52.514;13.438;2023-04-06T11:29:43;4;4;
38451;PMS5003;24231;52.514;13.438;2023-04-06T11:32:11;4;3;
38451;PMS5003;24231;52.514;13.438;2023-04-06T11:34:46;4;4;
38451;PMS5003;24231;52.514;13.438;2023-04-06T11:37:15;2;2;
38451;PMS5003;24231;52.514;13.438;2023-04-06T11:39:46;3;3;
38451;PMS5003;24231;52.514;13.438;2023-04-06T11:42:20;6;6;
38451;PMS5003;24231;52.514;13.438;2023-04-06T11:44:50;4;4;
38451;PMS5003;24231;52.514;13.438;2023-04-06T11:47:18;3;3;
38451;PMS5003;24231;52.514;13.438;2023-04-06T11:49:46;6;6;
38451;PMS5003;24231;52.514;13.438;2023-04-06T11:52:14;5;5;
38451;PMS5003;24231;52.514;13.438;2023-04-06T11:54:43;21;19;
38451;PMS5003;24231;52.514;13.438;2023-04-06T11:57:10;10;8;
38451;PMS5003;24231;52.514;13.438;2023-04-06T11:59:38;2;2;
38451;PMS5003;24231;52.514;13.438;2023-04-06T12:02:05;8;8;
38451;PMS5003;24231;52.514;13.438;2023-04-06T12:04:33;4;4;
38451;PMS5003;24231;52.514;13.438;2023-04-06T12:07:00;7;5;
38451;PMS5003;24231;52.514;13.438;2023-04-06T12:09:27;5;5;
38451;PMS5003;24231;52.514;13.438;2023-04-06T12:11:55;7;5;
38451;PMS5003;24231;52.514;13.438;2023-04-06T12:14:23;5;3;
38451;PMS5003;24231;52.514;13.438;2023-04-06T12:16:51;5;4;
38451;PMS5003;24231;52.514;13.438;2023-04-06T12:19:18;7;5;
38451;PMS5003;24231;52.514;13.438;2023-04-06T12:21:45;7;5;
38451;PMS5003;24231;52.514;13.438;2023-04-06T12:24:18;5;5;
38451;PMS5003;24231;52.514;13.438;2023-04-06T12:26:45;4;4;
38451;PMS5003;24231;52.514;13.438;2023-04-06T12:29:12;7;6;
38451;PMS5003;24231;52.514;13.438;2023-04-06T12:31:39;6;5;
38451;PMS5003;24231;52.514;13.438;2023-04-06T12:34:06;5;4;
38451;PMS5003;24231;52.514;13.438;2023-04-06T12:36:33;4;4;
38451;PMS5003;24231;52.514;13.438;2023-04-06T12:39:01;5;5;
38451;PMS5003;24231;52.514;13.438;2023-04-06T12:41:28;4;4;
38451;PMS5003;24231;52.514;13.438;2023-04-06T12:43:56;6;5;
38451;PMS5003;24231;52.514;13.438;2023-04-06T12:46:24;6;6;
38451;PMS5003;24231;52.514;13.438;2023-04-06T12:48:51;4;4;
38451;PMS5003;24231;52.514;13.438;2023-04-06T12:51:18;5;5;
38451;PMS5003;24231;52.514;13.438;2023-04-06T12:53:46;5;5;
38451;PMS5003;24231;52.514;13.438;2023-04-06T12:56:14;6;6;
38451;PMS5003;24231;52.514;13.438;2023-04-06T12:58:42;5;4;
38451;PMS5003;24231;52.514;13.438;2023-04-06T13:01:09;5;5;
38451;PMS5003;24231;52.514;13.438;2023-04-06T13:03:36;7;3;
38451;PMS5003;24231;52.514;13.438;2023-04-06T13:06:04;5;5;
38451;PMS5003;24231;52.514;13.438;2023-04-06T13:08:31;4;4;
38451;PMS5003;24231;52.514;13.438;2023-04-06T13:10:58;6;5;
38451;PMS5003;24231;52.514;13.438;2023-04-06T13:13:26;4;4;
38451;PMS5003;24231;52.514;13.438;2023-04-06T13:15:55;5;4;
38451;PMS5003;24231;52.514;13.438;2023-04-06T13:18:26;5;4;
38451;PMS5003;24231;52.514;13.438;2023-04-06T13:20:53;5;5;
38451;PMS5003;24231;52.514;13.438;2023-04-06T13:23:21;5;5;
38451;PMS5003;24231;52.514;13.438;2023-04-06T13:25:56;5;4;
38451;PMS5003;24231;52.514;13.438;2023-04-06T13:28:24;6;6;
38451;PMS5003;24231;52.514;13.438;2023-04-06T13:30:51;8;6;
38451;PMS5003;24231;52.514;13.438;2023-04-06T13:33:18;6;6;
38451;PMS5003;24231;52.514;13.438;2023-04-06T13:35:46;6;5;
38451;PMS5003;24231;52.514;13.438;2023-04-06T13:38:14;8;8;
38451;PMS5003;24231;52.514;13.438;2023-04-06T13:40:41;5;5;
38451;PMS5003;24231;52.514;13.438;2023-04-06T13:43:09;4;4;
38451;PMS5003;24231;52.514;13.438;2023-04-06T13:45:36;4;4;
38451;PMS5003;24231;52.514;13.438;2023-04-06T13:48:04;4;3;
38451;PMS5003;24231;52.514;13.438;2023-04-06T13:50:31;5;5;
38451;PMS5003;24231;52.514;13.438;2023-04-06T13:52:58;3;3;
38451;PMS5003;24231;52.514;13.438;2023-04-06T13:55:25;5;5;
38451;PMS5003;24231;52.514;13.438;2023-04-06T13:57:53;6;4;
38451;PMS5003;24231;52.514;13.438;2023-04-06T14:00:20;8;6;
38451;PMS5003;24231;52.514;13.438;2023-04-06T14:02:47;6;5;
38451;PMS5003;24231;52.514;13.438;2023-04-06T14:05:15;9;5;
38451;PMS5003;24231;52.514;13.438;2023-04-06T14:07:42;4;4;
38451;PMS5003;24231;52.514;13.438;2023-04-06T14:10:09;4;4;
38451;PMS5003;24231;52.514;13.438;2023-04-06T14:14:47;5;5;
38451;PMS5003;24231;52.514;13.438;2023-04-06T14:17:14;10;7;
38451;PMS5003;24231;52.514;13.438;2023-04-06T14:19:41;5;5;
38451;PMS5003;24231;52.514;13.438;2023-04-06T14:22:08;4;4;
38451;PMS5003;24231;52.514;13.438;2023-04-06T14:24:36;8;8;
38451;PMS5003;24231;52.514;13.438;2023-04-06T14:27:03;5;5;
38451;PMS5003;24231;52.514;13.438;2023-04-06T14:29:31;6;6;
38451;PMS5003;24231;52.514;13.438;2023-04-06T14:31:58;8;7;
38451;PMS5003;24231;52.514;13.438;2023-04-06T14:34:25;5;4;
38451;PMS5003;24231;52.514;13.438;2023-04-06T14:36:53;6;6;
38451;PMS5003;24231;52.514;13.438;2023-04-06T14:39:20;3;3;
38451;PMS5003;24231;52.514;13.438;2023-04-06T14:41:47;7;6;
38451;PMS5003;24231;52.514;13.438;2023-04-06T14:44:14;6;6;
38451;PMS5003;24231;52.514;13.438;2023-04-06T14:46:42;7;7;
38451;PMS5003;24231;52.514;13.438;2023-04-06T14:49:09;8;8;
38451;PMS5003;24231;52.514;13.438;2023-04-06T14:51:36;5;5;
38451;PMS5003;24231;52.514;13.438;2023-04-06T14:54:13;5;5;
38451;PMS5003;24231;52.514;13.438;2023-04-06T14:56:40;8;6;
38451;PMS5003;24231;52.514;13.438;2023-04-06T14:59:08;5;5;
38451;PMS5003;24231;52.514;13.438;2023-04-06T15:01:35;6;6;
38451;PMS5003;24231;52.514;13.438;2023-04-06T15:04:03;5;5;
38451;PMS5003;24231;52.514;13.438;2023-04-06T15:06:31;7;7;
38451;PMS5003;24231;52.514;13.438;2023-04-06T15:08:58;8;6;
38451;PMS5003;24231;52.514;13.438;2023-04-06T15:11:25;8;8;
38451;PMS5003;24231;52.514;13.438;2023-04-06T15:13:52;9;8;
38451;PMS5003;24231;52.514;13.438;2023-04-06T15:16:20;15;12;
38451;PMS5003;24231;52.514;13.438;2023-04-06T15:18:47;6;6;
38451;PMS5003;24231;52.514;13.438;2023-04-06T15:21:14;14;9;
38451;PMS5003;24231;52.514;13.438;2023-04-06T15:23:41;11;8;
38451;PMS5003;24231;52.514;13.438;2023-04-06T15:26:08;8;5;
38451;PMS5003;24231;52.514;13.438;2023-04-06T15:28:35;5;5;
38451;PMS5003;24231;52.514;13.438;2023-04-06T15:31:03;6;5;
38451;PMS5003;24231;52.514;13.438;2023-04-06T15:33:38;6;5;
38451;PMS5003;24231;52.514;13.438;2023-04-06T15:36:06;5;5;
38451;PMS5003;24231;52.514;13.438;2023-04-06T15:38:48;8;6;
38451;PMS5003;24231;52.514;13.438;2023-04-06T15:41:15;5;5;
38451;PMS5003;24231;52.514;13.438;2023-04-06T15:43:42;4;4;
38451;PMS5003;24231;52.514;13.438;2023-04-06T15:46:10;7;7;
38451;PMS5003;24231;52.514;13.438;2023-04-06T15:48:37;7;7;
38451;PMS5003;24231;52.514;13.438;2023-04-06T15:51:04;5;5;
38451;PMS5003;24231;52.514;13.438;2023-04-06T15:53:32;7;7;
38451;PMS5003;24231;52.514;13.438;2023-04-06T15:55:59;8;7;
38451;PMS5003;24231;52.514;13.438;2023-04-06T15:58:27;24;21;
38451;PMS5003;24231;52.514;13.438;2023-04-06T16:00:56;6;6;
38451;PMS5003;24231;52.514;13.438;2023-04-06T16:03:23;6;6;
38451;PMS5003;24231;52.514;13.438;2023-04-06T16:05:51;6;5;
38451;PMS5003;24231;52.514;13.438;2023-04-06T16:08:33;9;8;
38451;PMS5003;24231;52.514;13.438;2023-04-06T16:11:01;5;5;
38451;PMS5003;24231;52.514;13.438;2023-04-06T16:13:28;6;6;
38451;PMS5003;24231;52.514;13.438;2023-04-06T16:15:55;7;7;
38451;PMS5003;24231;52.514;13.438;2023-04-06T16:18:23;10;10;
38451;PMS5003;24231;52.514;13.438;2023-04-06T16:20:50;5;5;
38451;PMS5003;24231;52.514;13.438;2023-04-06T16:23:17;5;5;